Terminal Aerodrome Forecast
Issued by NWS

Home | Current Version | Previous Version | Text Only | Print | Product List | Glossary On
Versions: 1 2 3 4 5 6 7 8 9 10 11 12 13 14 15 16 17 18 19 20 21 22 23 24
000
FTUS43 KDLH 092300
TAFHIB
TAF
KHIB 092320Z 1000/1024 VRB04KT P6SM SKC
     FM101600 19008KT P6SM FEW050
     FM102000 21011KT P6SM SCT070=

USA.gov is the U.S. government's official web portal to all federal, state and local government web resources and services.